sensor_id;sensor_type;location;lat;lon;timestamp;P1;durP1;ratioP1;P2;durP2;ratioP2
50126;SDS011;36024;47.974;16.398;2023-08-07T00:01:46;0.47;;;0.40;;
50126;SDS011;36024;47.974;16.398;2023-08-07T00:04:13;0.90;;;0.30;;
50126;SDS011;36024;47.974;16.398;2023-08-07T00:06:40;0.40;;;0.27;;
50126;SDS011;36024;47.974;16.398;2023-08-07T00:09:06;1.37;;;0.40;;
50126;SDS011;36024;47.974;16.398;2023-08-07T00:11:33;1.70;;;0.30;;
50126;SDS011;36024;47.974;16.398;2023-08-07T00:14:00;1.43;;;0.30;;
50126;SDS011;36024;47.974;16.398;2023-08-07T00:16:27;0.30;;;0.30;;
50126;SDS011;36024;47.974;16.398;2023-08-07T00:18:54;0.20;;;0.20;;
50126;SDS011;36024;47.974;16.398;2023-08-07T00:21:22;0.40;;;0.27;;
50126;SDS011;36024;47.974;16.398;2023-08-07T00:23:49;2.03;;;0.30;;
50126;SDS011;36024;47.974;16.398;2023-08-07T00:26:16;0.30;;;0.27;;
50126;SDS011;36024;47.974;16.398;2023-08-07T00:28:44;0.30;;;0.30;;
50126;SDS011;36024;47.974;16.398;2023-08-07T00:31:11;0.23;;;0.23;;
50126;SDS011;36024;47.974;16.398;2023-08-07T00:33:39;0.87;;;0.30;;
50126;SDS011;36024;47.974;16.398;2023-08-07T00:36:07;0.37;;;0.20;;
50126;SDS011;36024;47.974;16.398;2023-08-07T00:38:34;1.20;;;0.40;;
50126;SDS011;36024;47.974;16.398;2023-08-07T00:41:01;1.77;;;0.20;;
50126;SDS011;36024;47.974;16.398;2023-08-07T00:43:28;0.73;;;0.40;;
50126;SDS011;36024;47.974;16.398;2023-08-07T00:45:54;0.37;;;0.20;;
50126;SDS011;36024;47.974;16.398;2023-08-07T00:48:21;0.93;;;0.30;;
50126;SDS011;36024;47.974;16.398;2023-08-07T00:50:48;0.83;;;0.30;;
50126;SDS011;36024;47.974;16.398;2023-08-07T00:53:15;0.20;;;0.20;;
50126;SDS011;36024;47.974;16.398;2023-08-07T00:55:41;0.50;;;0.30;;
50126;SDS011;36024;47.974;16.398;2023-08-07T00:58:08;0.27;;;0.27;;
50126;SDS011;36024;47.974;16.398;2023-08-07T01:00:35;0.40;;;0.30;;
50126;SDS011;36024;47.974;16.398;2023-08-07T01:05:32;0.27;;;0.27;;
50126;SDS011;36024;47.974;16.398;2023-08-07T01:07:59;0.40;;;0.30;;
50126;SDS011;36024;47.974;16.398;2023-08-07T01:10:35;0.83;;;0.40;;
50126;SDS011;36024;47.974;16.398;2023-08-07T01:13:28;0.27;;;0.20;;
50126;SDS011;36024;47.974;16.398;2023-08-07T01:15:58;2.20;;;0.40;;
50126;SDS011;36024;47.974;16.398;2023-08-07T01:18:26;0.40;;;0.40;;
50126;SDS011;36024;47.974;16.398;2023-08-07T01:20:53;1.17;;;0.40;;
50126;SDS011;36024;47.974;16.398;2023-08-07T01:23:20;0.83;;;0.50;;
50126;SDS011;36024;47.974;16.398;2023-08-07T01:25:46;1.07;;;0.37;;
50126;SDS011;36024;47.974;16.398;2023-08-07T01:28:17;0.40;;;0.40;;
50126;SDS011;36024;47.974;16.398;2023-08-07T01:30:48;0.70;;;0.40;;
50126;SDS011;36024;47.974;16.398;2023-08-07T01:33:18;1.60;;;0.40;;
50126;SDS011;36024;47.974;16.398;2023-08-07T01:35:52;0.53;;;0.40;;
50126;SDS011;36024;47.974;16.398;2023-08-07T01:38:21;0.40;;;0.40;;
50126;SDS011;36024;47.974;16.398;2023-08-07T01:40:51;0.57;;;0.50;;
50126;SDS011;36024;47.974;16.398;2023-08-07T01:43:19;0.70;;;0.40;;
50126;SDS011;36024;47.974;16.398;2023-08-07T01:45:45;0.50;;;0.50;;
50126;SDS011;36024;47.974;16.398;2023-08-07T01:48:12;0.67;;;0.40;;
50126;SDS011;36024;47.974;16.398;2023-08-07T01:50:40;1.40;;;0.50;;
50126;SDS011;36024;47.974;16.398;2023-08-07T01:53:07;0.83;;;0.43;;
50126;SDS011;36024;47.974;16.398;2023-08-07T01:55:34;1.73;;;0.50;;
50126;SDS011;36024;47.974;16.398;2023-08-07T01:58:00;0.63;;;0.50;;
50126;SDS011;36024;47.974;16.398;2023-08-07T02:00:27;1.07;;;0.60;;
50126;SDS011;36024;47.974;16.398;2023-08-07T02:02:54;0.67;;;0.47;;
50126;SDS011;36024;47.974;16.398;2023-08-07T02:05:20;1.43;;;0.60;;
50126;SDS011;36024;47.974;16.398;2023-08-07T02:07:47;0.40;;;0.40;;
50126;SDS011;36024;47.974;16.398;2023-08-07T02:10:14;1.10;;;0.60;;
50126;SDS011;36024;47.974;16.398;2023-08-07T02:12:41;0.80;;;0.50;;
50126;SDS011;36024;47.974;16.398;2023-08-07T02:15:07;0.60;;;0.60;;
50126;SDS011;36024;47.974;16.398;2023-08-07T02:17:34;0.70;;;0.40;;
50126;SDS011;36024;47.974;16.398;2023-08-07T02:20:04;0.73;;;0.50;;
50126;SDS011;36024;47.974;16.398;2023-08-07T02:22:32;1.30;;;0.50;;
50126;SDS011;36024;47.974;16.398;2023-08-07T02:24:58;0.50;;;0.47;;
50126;SDS011;36024;47.974;16.398;2023-08-07T02:27:25;0.80;;;0.60;;
50126;SDS011;36024;47.974;16.398;2023-08-07T02:29:52;1.00;;;0.50;;
50126;SDS011;36024;47.974;16.398;2023-08-07T02:32:19;1.30;;;0.50;;
50126;SDS011;36024;47.974;16.398;2023-08-07T02:34:46;0.70;;;0.67;;
50126;SDS011;36024;47.974;16.398;2023-08-07T02:37:12;1.73;;;0.50;;
50126;SDS011;36024;47.974;16.398;2023-08-07T02:39:39;0.70;;;0.33;;
50126;SDS011;36024;47.974;16.398;2023-08-07T02:42:06;0.83;;;0.40;;
50126;SDS011;36024;47.974;16.398;2023-08-07T02:44:33;1.10;;;0.50;;
50126;SDS011;36024;47.974;16.398;2023-08-07T02:47:00;0.60;;;0.50;;
50126;SDS011;36024;47.974;16.398;2023-08-07T02:49:27;1.33;;;0.50;;
50126;SDS011;36024;47.974;16.398;2023-08-07T02:51:53;0.87;;;0.50;;
50126;SDS011;36024;47.974;16.398;2023-08-07T02:54:20;1.63;;;0.50;;
50126;SDS011;36024;47.974;16.398;2023-08-07T02:56:47;0.40;;;0.40;;
50126;SDS011;36024;47.974;16.398;2023-08-07T02:59:15;0.50;;;0.40;;
50126;SDS011;36024;47.974;16.398;2023-08-07T03:01:43;1.27;;;0.50;;
50126;SDS011;36024;47.974;16.398;2023-08-07T03:04:10;1.70;;;0.40;;
50126;SDS011;36024;47.974;16.398;2023-08-07T03:06:36;0.97;;;0.40;;
50126;SDS011;36024;47.974;16.398;2023-08-07T03:09:03;0.30;;;0.30;;
50126;SDS011;36024;47.974;16.398;2023-08-07T03:11:30;0.70;;;0.50;;
50126;SDS011;36024;47.974;16.398;2023-08-07T03:13:56;0.73;;;0.40;;
50126;SDS011;36024;47.974;16.398;2023-08-07T03:16:23;0.70;;;0.30;;
50126;SDS011;36024;47.974;16.398;2023-08-07T03:18:50;0.30;;;0.30;;
50126;SDS011;36024;47.974;16.398;2023-08-07T03:21:17;2.27;;;0.47;;
50126;SDS011;36024;47.974;16.398;2023-08-07T03:23:43;0.67;;;0.50;;
50126;SDS011;36024;47.974;16.398;2023-08-07T03:26:11;1.13;;;0.40;;
50126;SDS011;36024;47.974;16.398;2023-08-07T03:28:46;0.50;;;0.43;;
50126;SDS011;36024;47.974;16.398;2023-08-07T03:31:14;0.30;;;0.20;;
50126;SDS011;36024;47.974;16.398;2023-08-07T03:33:41;0.70;;;0.40;;
50126;SDS011;36024;47.974;16.398;2023-08-07T03:36:08;0.40;;;0.40;;
50126;SDS011;36024;47.974;16.398;2023-08-07T03:38:36;0.37;;;0.30;;
50126;SDS011;36024;47.974;16.398;2023-08-07T03:41:04;0.30;;;0.30;;
50126;SDS011;36024;47.974;16.398;2023-08-07T03:43:31;0.50;;;0.20;;
50126;SDS011;36024;47.974;16.398;2023-08-07T03:45:58;0.40;;;0.30;;
50126;SDS011;36024;47.974;16.398;2023-08-07T03:48:29;0.77;;;0.40;;
50126;SDS011;36024;47.974;16.398;2023-08-07T03:51:04;0.30;;;0.30;;
50126;SDS011;36024;47.974;16.398;2023-08-07T03:53:35;1.50;;;0.40;;
50126;SDS011;36024;47.974;16.398;2023-08-07T03:56:01;0.33;;;0.30;;
50126;SDS011;36024;47.974;16.398;2023-08-07T03:58:30;0.20;;;0.20;;
50126;SDS011;36024;47.974;16.398;2023-08-07T04:00:57;0.30;;;0.30;;
50126;SDS011;36024;47.974;16.398;2023-08-07T04:03:24;0.63;;;0.47;;
50126;SDS011;36024;47.974;16.398;2023-08-07T04:05:52;0.47;;;0.30;;
50126;SDS011;36024;47.974;16.398;2023-08-07T04:08:21;1.03;;;0.30;;
50126;SDS011;36024;47.974;16.398;2023-08-07T04:10:59;0.30;;;0.30;;
50126;SDS011;36024;47.974;16.398;2023-08-07T04:13:29;0.40;;;0.40;;
50126;SDS011;36024;47.974;16.398;2023-08-07T04:15:57;0.30;;;0.30;;
50126;SDS011;36024;47.974;16.398;2023-08-07T04:18:24;0.30;;;0.30;;
50126;SDS011;36024;47.974;16.398;2023-08-07T04:20:54;0.90;;;0.37;;
50126;SDS011;36024;47.974;16.398;2023-08-07T04:23:21;0.50;;;0.27;;
50126;SDS011;36024;47.974;16.398;2023-08-07T04:25:48;0.20;;;0.20;;
50126;SDS011;36024;47.974;16.398;2023-08-07T04:28:15;0.30;;;0.30;;
50126;SDS011;36024;47.974;16.398;2023-08-07T04:30:42;0.30;;;0.30;;
50126;SDS011;36024;47.974;16.398;2023-08-07T04:33:10;0.97;;;0.20;;
50126;SDS011;36024;47.974;16.398;2023-08-07T04:35:37;0.80;;;0.20;;
50126;SDS011;36024;47.974;16.398;2023-08-07T04:38:03;2.00;;;0.30;;
50126;SDS011;36024;47.974;16.398;2023-08-07T04:40:30;0.20;;;0.20;;
50126;SDS011;36024;47.974;16.398;2023-08-07T04:42:57;0.60;;;0.20;;
50126;SDS011;36024;47.974;16.398;2023-08-07T04:45:23;0.10;;;0.10;;
50126;SDS011;36024;47.974;16.398;2023-08-07T04:47:50;0.20;;;0.10;;
50126;SDS011;36024;47.974;16.398;2023-08-07T04:50:17;0.73;;;0.10;;
50126;SDS011;36024;47.974;16.398;2023-08-07T04:52:44;1.13;;;0.10;;
50126;SDS011;36024;47.974;16.398;2023-08-07T04:55:10;0.83;;;0.10;;
50126;SDS011;36024;47.974;16.398;2023-08-07T04:57:38;0.30;;;0.20;;
50126;SDS011;36024;47.974;16.398;2023-08-07T05:00:04;1.03;;;0.10;;
50126;SDS011;36024;47.974;16.398;2023-08-07T05:02:32;0.10;;;0.10;;
50126;SDS011;36024;47.974;16.398;2023-08-07T05:04:59;0.10;;;0.10;;
50126;SDS011;36024;47.974;16.398;2023-08-07T05:07:25;0.77;;;0.17;;
50126;SDS011;36024;47.974;16.398;2023-08-07T05:09:52;0.50;;;0.10;;
50126;SDS011;36024;47.974;16.398;2023-08-07T05:12:19;0.37;;;0.10;;
50126;SDS011;36024;47.974;16.398;2023-08-07T05:14:46;0.10;;;0.10;;
50126;SDS011;36024;47.974;16.398;2023-08-07T05:17:13;1.13;;;0.20;;
50126;SDS011;36024;47.974;16.398;2023-08-07T05:19:40;0.10;;;0.10;;
50126;SDS011;36024;47.974;16.398;2023-08-07T05:22:06;0.43;;;0.20;;
50126;SDS011;36024;47.974;16.398;2023-08-07T05:24:33;0.20;;;0.13;;
50126;SDS011;36024;47.974;16.398;2023-08-07T05:27:06;0.10;;;0.10;;
50126;SDS011;36024;47.974;16.398;2023-08-07T05:29:34;0.30;;;0.20;;
50126;SDS011;36024;47.974;16.398;2023-08-07T05:32:10;0.20;;;0.20;;
50126;SDS011;36024;47.974;16.398;2023-08-07T05:34:40;0.27;;;0.10;;
50126;SDS011;36024;47.974;16.398;2023-08-07T05:37:06;0.40;;;0.10;;
50126;SDS011;36024;47.974;16.398;2023-08-07T05:39:34;0.80;;;0.10;;
50126;SDS011;36024;47.974;16.398;2023-08-07T05:42:01;0.10;;;0.10;;
50126;SDS011;36024;47.974;16.398;2023-08-07T05:44:28;0.40;;;0.10;;
50126;SDS011;36024;47.974;16.398;2023-08-07T05:46:55;0.10;;;0.10;;
50126;SDS011;36024;47.974;16.398;2023-08-07T05:49:22;0.20;;;0.10;;
50126;SDS011;36024;47.974;16.398;2023-08-07T05:51:51;0.20;;;0.10;;
50126;SDS011;36024;47.974;16.398;2023-08-07T05:54:18;0.13;;;0.13;;
50126;SDS011;36024;47.974;16.398;2023-08-07T05:56:44;0.20;;;0.07;;
50126;SDS011;36024;47.974;16.398;2023-08-07T05:59:11;0.70;;;0.00;;
50126;SDS011;36024;47.974;16.398;2023-08-07T06:01:38;0.77;;;0.00;;
50126;SDS011;36024;47.974;16.398;2023-08-07T06:04:04;0.10;;;0.10;;
50126;SDS011;36024;47.974;16.398;2023-08-07T06:06:31;0.10;;;0.10;;
50126;SDS011;36024;47.974;16.398;2023-08-07T06:09:01;0.00;;;0.00;;
50126;SDS011;36024;47.974;16.398;2023-08-07T06:11:31;0.73;;;0.10;;
50126;SDS011;36024;47.974;16.398;2023-08-07T06:13:58;2.00;;;0.10;;
50126;SDS011;36024;47.974;16.398;2023-08-07T06:16:25;0.10;;;0.00;;
50126;SDS011;36024;47.974;16.398;2023-08-07T06:18:52;0.07;;;0.07;;
50126;SDS011;36024;47.974;16.398;2023-08-07T06:21:19;0.00;;;0.00;;
50126;SDS011;36024;47.974;16.398;2023-08-07T06:23:46;0.70;;;0.10;;
50126;SDS011;36024;47.974;16.398;2023-08-07T06:26:13;0.63;;;0.00;;
50126;SDS011;36024;47.974;16.398;2023-08-07T06:28:40;0.83;;;0.10;;
50126;SDS011;36024;47.974;16.398;2023-08-07T06:31:08;0.00;;;0.00;;
50126;SDS011;36024;47.974;16.398;2023-08-07T06:33:36;0.43;;;0.10;;
50126;SDS011;36024;47.974;16.398;2023-08-07T06:36:03;0.00;;;0.00;;
50126;SDS011;36024;47.974;16.398;2023-08-07T06:38:30;0.30;;;0.10;;
50126;SDS011;36024;47.974;16.398;2023-08-07T06:40:57;0.00;;;0.00;;
50126;SDS011;36024;47.974;16.398;2023-08-07T06:43:24;0.00;;;0.00;;
50126;SDS011;36024;47.974;16.398;2023-08-07T06:45:54;0.20;;;0.10;;
50126;SDS011;36024;47.974;16.398;2023-08-07T06:48:22;0.93;;;0.10;;
50126;SDS011;36024;47.974;16.398;2023-08-07T06:50:49;0.67;;;0.00;;
50126;SDS011;36024;47.974;16.398;2023-08-07T06:53:16;0.20;;;0.00;;
50126;SDS011;36024;47.974;16.398;2023-08-07T06:55:43;0.43;;;0.10;;
50126;SDS011;36024;47.974;16.398;2023-08-07T06:58:10;0.10;;;0.10;;
50126;SDS011;36024;47.974;16.398;2023-08-07T07:00:37;0.83;;;0.10;;
50126;SDS011;36024;47.974;16.398;2023-08-07T07:03:03;0.00;;;0.00;;
50126;SDS011;36024;47.974;16.398;2023-08-07T07:05:30;0.77;;;0.10;;
50126;SDS011;36024;47.974;16.398;2023-08-07T07:07:58;0.00;;;0.00;;
50126;SDS011;36024;47.974;16.398;2023-08-07T07:10:25;0.00;;;0.00;;
50126;SDS011;36024;47.974;16.398;2023-08-07T07:12:51;0.20;;;0.10;;
50126;SDS011;36024;47.974;16.398;2023-08-07T07:15:18;0.10;;;0.10;;
50126;SDS011;36024;47.974;16.398;2023-08-07T07:17:45;0.77;;;0.10;;
50126;SDS011;36024;47.974;16.398;2023-08-07T07:20:12;0.17;;;0.10;;
50126;SDS011;36024;47.974;16.398;2023-08-07T07:22:38;0.00;;;0.00;;
50126;SDS011;36024;47.974;16.398;2023-08-07T07:25:05;0.33;;;0.10;;
50126;SDS011;36024;47.974;16.398;2023-08-07T07:27:32;0.07;;;0.07;;
50126;SDS011;36024;47.974;16.398;2023-08-07T07:29:59;0.77;;;0.10;;
50126;SDS011;36024;47.974;16.398;2023-08-07T07:32:26;0.30;;;0.20;;
50126;SDS011;36024;47.974;16.398;2023-08-07T07:34:53;2.23;;;0.20;;
50126;SDS011;36024;47.974;16.398;2023-08-07T07:37:19;0.60;;;0.20;;
50126;SDS011;36024;47.974;16.398;2023-08-07T07:39:46;0.67;;;0.20;;
50126;SDS011;36024;47.974;16.398;2023-08-07T07:42:13;0.00;;;0.00;;
50126;SDS011;36024;47.974;16.398;2023-08-07T07:44:39;0.00;;;0.00;;
50126;SDS011;36024;47.974;16.398;2023-08-07T07:47:07;0.00;;;0.00;;
50126;SDS011;36024;47.974;16.398;2023-08-07T07:49:38;1.67;;;0.20;;
50126;SDS011;36024;47.974;16.398;2023-08-07T07:52:05;0.43;;;0.20;;
50126;SDS011;36024;47.974;16.398;2023-08-07T07:54:32;0.47;;;0.30;;
50126;SDS011;36024;47.974;16.398;2023-08-07T07:56:59;0.00;;;0.00;;
50126;SDS011;36024;47.974;16.398;2023-08-07T07:59:25;0.83;;;0.10;;
50126;SDS011;36024;47.974;16.398;2023-08-07T08:01:52;0.30;;;0.10;;
50126;SDS011;36024;47.974;16.398;2023-08-07T08:04:19;0.30;;;0.10;;
50126;SDS011;36024;47.974;16.398;2023-08-07T08:06:46;0.83;;;0.10;;
50126;SDS011;36024;47.974;16.398;2023-08-07T08:09:14;0.20;;;0.20;;
50126;SDS011;36024;47.974;16.398;2023-08-07T08:11:41;0.10;;;0.10;;
50126;SDS011;36024;47.974;16.398;2023-08-07T08:14:08;0.20;;;0.20;;
50126;SDS011;36024;47.974;16.398;2023-08-07T08:16:35;0.40;;;0.10;;
50126;SDS011;36024;47.974;16.398;2023-08-07T08:19:02;0.27;;;0.20;;
50126;SDS011;36024;47.974;16.398;2023-08-07T08:21:29;0.10;;;0.10;;
50126;SDS011;36024;47.974;16.398;2023-08-07T08:23:57;0.20;;;0.20;;
50126;SDS011;36024;47.974;16.398;2023-08-07T08:26:24;2.53;;;0.30;;
50126;SDS011;36024;47.974;16.398;2023-08-07T08:28:50;0.20;;;0.20;;
50126;SDS011;36024;47.974;16.398;2023-08-07T08:31:17;0.97;;;0.20;;
50126;SDS011;36024;47.974;16.398;2023-08-07T08:33:44;0.23;;;0.10;;
50126;SDS011;36024;47.974;16.398;2023-08-07T08:36:11;0.40;;;0.20;;
50126;SDS011;36024;47.974;16.398;2023-08-07T08:38:37;0.40;;;0.27;;
50126;SDS011;36024;47.974;16.398;2023-08-07T08:41:04;1.03;;;0.30;;
50126;SDS011;36024;47.974;16.398;2023-08-07T08:43:35;0.47;;;0.27;;
50126;SDS011;36024;47.974;16.398;2023-08-07T08:46:05;0.20;;;0.20;;
50126;SDS011;36024;47.974;16.398;2023-08-07T08:48:34;2.13;;;0.30;;
50126;SDS011;36024;47.974;16.398;2023-08-07T08:51:02;0.90;;;0.20;;
50126;SDS011;36024;47.974;16.398;2023-08-07T08:53:30;0.20;;;0.20;;
50126;SDS011;36024;47.974;16.398;2023-08-07T08:55:59;1.70;;;0.20;;
50126;SDS011;36024;47.974;16.398;2023-08-07T08:58:27;0.10;;;0.10;;
50126;SDS011;36024;47.974;16.398;2023-08-07T09:00:54;0.40;;;0.30;;
50126;SDS011;36024;47.974;16.398;2023-08-07T09:03:21;0.30;;;0.30;;
50126;SDS011;36024;47.974;16.398;2023-08-07T09:05:48;0.60;;;0.30;;
50126;SDS011;36024;47.974;16.398;2023-08-07T09:08:16;0.43;;;0.27;;
50126;SDS011;36024;47.974;16.398;2023-08-07T09:10:43;0.20;;;0.20;;
50126;SDS011;36024;47.974;16.398;2023-08-07T09:13:11;1.77;;;0.40;;
50126;SDS011;36024;47.974;16.398;2023-08-07T09:15:40;0.30;;;0.30;;
50126;SDS011;36024;47.974;16.398;2023-08-07T09:18:07;2.23;;;0.40;;
50126;SDS011;36024;47.974;16.398;2023-08-07T09:20:35;0.20;;;0.20;;
50126;SDS011;36024;47.974;16.398;2023-08-07T09:23:02;0.50;;;0.20;;
50126;SDS011;36024;47.974;16.398;2023-08-07T09:25:32;0.60;;;0.30;;
50126;SDS011;36024;47.974;16.398;2023-08-07T09:28:06;1.43;;;0.30;;
50126;SDS011;36024;47.974;16.398;2023-08-07T09:30:34;1.33;;;0.30;;
50126;SDS011;36024;47.974;16.398;2023-08-07T09:33:01;0.30;;;0.20;;
50126;SDS011;36024;47.974;16.398;2023-08-07T09:35:29;0.73;;;0.23;;
50126;SDS011;36024;47.974;16.398;2023-08-07T09:37:57;1.13;;;0.30;;
50126;SDS011;36024;47.974;16.398;2023-08-07T09:40:24;0.50;;;0.30;;
50126;SDS011;36024;47.974;16.398;2023-08-07T09:42:54;1.20;;;0.40;;
50126;SDS011;36024;47.974;16.398;2023-08-07T09:48:01;0.50;;;0.30;;
50126;SDS011;36024;47.974;16.398;2023-08-07T09:50:30;0.37;;;0.37;;
50126;SDS011;36024;47.974;16.398;2023-08-07T09:52:57;0.40;;;0.40;;
50126;SDS011;36024;47.974;16.398;2023-08-07T09:55:25;0.30;;;0.30;;
50126;SDS011;36024;47.974;16.398;2023-08-07T09:57:52;0.30;;;0.30;;
50126;SDS011;36024;47.974;16.398;2023-08-07T10:00:19;0.40;;;0.40;;
50126;SDS011;36024;47.974;16.398;2023-08-07T10:02:49;0.87;;;0.30;;
50126;SDS011;36024;47.974;16.398;2023-08-07T10:05:17;0.40;;;0.20;;
50126;SDS011;36024;47.974;16.398;2023-08-07T10:07:44;0.63;;;0.30;;
50126;SDS011;36024;47.974;16.398;2023-08-07T10:10:10;0.50;;;0.20;;
50126;SDS011;36024;47.974;16.398;2023-08-07T10:12:37;1.70;;;0.30;;
50126;SDS011;36024;47.974;16.398;2023-08-07T10:15:05;1.33;;;0.30;;
50126;SDS011;36024;47.974;16.398;2023-08-07T10:17:33;0.40;;;0.40;;
50126;SDS011;36024;47.974;16.398;2023-08-07T10:20:00;0.30;;;0.30;;
50126;SDS011;36024;47.974;16.398;2023-08-07T10:22:28;0.73;;;0.30;;
50126;SDS011;36024;47.974;16.398;2023-08-07T10:24:57;4.70;;;0.47;;
50126;SDS011;36024;47.974;16.398;2023-08-07T10:27:24;0.23;;;0.23;;
50126;SDS011;36024;47.974;16.398;2023-08-07T10:29:53;0.30;;;0.30;;
50126;SDS011;36024;47.974;16.398;2023-08-07T10:32:21;0.30;;;0.30;;
50126;SDS011;36024;47.974;16.398;2023-08-07T10:34:49;1.03;;;0.30;;
50126;SDS011;36024;47.974;16.398;2023-08-07T10:37:32;0.50;;;0.40;;
50126;SDS011;36024;47.974;16.398;2023-08-07T10:40:05;0.27;;;0.20;;
50126;SDS011;36024;47.974;16.398;2023-08-07T10:42:51;0.30;;;0.30;;
50126;SDS011;36024;47.974;16.398;2023-08-07T10:45:18;0.43;;;0.30;;
50126;SDS011;36024;47.974;16.398;2023-08-07T10:50:32;0.50;;;0.40;;
50126;SDS011;36024;47.974;16.398;2023-08-07T10:53:03;0.30;;;0.30;;
50126;SDS011;36024;47.974;16.398;2023-08-07T10:58:31;0.30;;;0.30;;
50126;SDS011;36024;47.974;16.398;2023-08-07T11:01:19;1.97;;;0.50;;
50126;SDS011;36024;47.974;16.398;2023-08-07T11:06:28;0.30;;;0.30;;
50126;SDS011;36024;47.974;16.398;2023-08-07T11:08:59;0.40;;;0.30;;
50126;SDS011;36024;47.974;16.398;2023-08-07T11:11:26;0.80;;;0.40;;
50126;SDS011;36024;47.974;16.398;2023-08-07T11:13:53;0.53;;;0.30;;
50126;SDS011;36024;47.974;16.398;2023-08-07T11:16:20;0.60;;;0.40;;
50126;SDS011;36024;47.974;16.398;2023-08-07T11:18:48;0.70;;;0.50;;
50126;SDS011;36024;47.974;16.398;2023-08-07T11:21:15;0.30;;;0.30;;
50126;SDS011;36024;47.974;16.398;2023-08-07T11:23:41;0.30;;;0.30;;
50126;SDS011;36024;47.974;16.398;2023-08-07T11:26:10;0.60;;;0.50;;
50126;SDS011;36024;47.974;16.398;2023-08-07T11:28:37;0.43;;;0.37;;
50126;SDS011;36024;47.974;16.398;2023-08-07T11:31:04;0.40;;;0.40;;
50126;SDS011;36024;47.974;16.398;2023-08-07T11:33:31;0.50;;;0.40;;
50126;SDS011;36024;47.974;16.398;2023-08-07T11:35:57;0.53;;;0.40;;
50126;SDS011;36024;47.974;16.398;2023-08-07T11:38:32;0.30;;;0.30;;
50126;SDS011;36024;47.974;16.398;2023-08-07T11:41:04;0.30;;;0.30;;
50126;SDS011;36024;47.974;16.398;2023-08-07T11:43:35;1.17;;;0.50;;
50126;SDS011;36024;47.974;16.398;2023-08-07T11:46:03;0.37;;;0.30;;
50126;SDS011;36024;47.974;16.398;2023-08-07T11:48:32;0.40;;;0.40;;
50126;SDS011;36024;47.974;16.398;2023-08-07T11:51:00;0.30;;;0.30;;
50126;SDS011;36024;47.974;16.398;2023-08-07T11:53:28;1.00;;;0.30;;
50126;SDS011;36024;47.974;16.398;2023-08-07T11:56:00;0.77;;;0.53;;
50126;SDS011;36024;47.974;16.398;2023-08-07T11:58:33;0.80;;;0.43;;
50126;SDS011;36024;47.974;16.398;2023-08-07T12:01:04;0.67;;;0.50;;
50126;SDS011;36024;47.974;16.398;2023-08-07T12:03:36;0.60;;;0.40;;
50126;SDS011;36024;47.974;16.398;2023-08-07T12:06:06;0.57;;;0.50;;
50126;SDS011;36024;47.974;16.398;2023-08-07T12:08:37;0.47;;;0.47;;
50126;SDS011;36024;47.974;16.398;2023-08-07T12:11:06;0.30;;;0.30;;
50126;SDS011;36024;47.974;16.398;2023-08-07T12:13:38;0.40;;;0.40;;
50126;SDS011;36024;47.974;16.398;2023-08-07T12:16:06;0.50;;;0.40;;
50126;SDS011;36024;47.974;16.398;2023-08-07T12:18:35;0.80;;;0.50;;
50126;SDS011;36024;47.974;16.398;2023-08-07T12:21:04;0.40;;;0.40;;
50126;SDS011;36024;47.974;16.398;2023-08-07T12:23:33;0.60;;;0.60;;
50126;SDS011;36024;47.974;16.398;2023-08-07T12:26:01;0.50;;;0.40;;
50126;SDS011;36024;47.974;16.398;2023-08-07T12:28:27;1.37;;;0.40;;
50126;SDS011;36024;47.974;16.398;2023-08-07T12:30:54;0.60;;;0.50;;
50126;SDS011;36024;47.974;16.398;2023-08-07T12:33:22;1.87;;;0.60;;
50126;SDS011;36024;47.974;16.398;2023-08-07T12:35:49;0.50;;;0.40;;
50126;SDS011;36024;47.974;16.398;2023-08-07T12:38:15;1.00;;;0.60;;
50126;SDS011;36024;47.974;16.398;2023-08-07T12:40:43;1.10;;;0.60;;
50126;SDS011;36024;47.974;16.398;2023-08-07T12:43:56;0.50;;;0.50;;
50126;SDS011;36024;47.974;16.398;2023-08-07T12:46:22;0.97;;;0.80;;
50126;SDS011;36024;47.974;16.398;2023-08-07T12:48:52;0.73;;;0.70;;
50126;SDS011;36024;47.974;16.398;2023-08-07T12:51:19;1.03;;;0.80;;
50126;SDS011;36024;47.974;16.398;2023-08-07T12:53:45;1.93;;;0.70;;
50126;SDS011;36024;47.974;16.398;2023-08-07T12:56:13;0.83;;;0.70;;
50126;SDS011;36024;47.974;16.398;2023-08-07T12:58:40;2.57;;;1.10;;
50126;SDS011;36024;47.974;16.398;2023-08-07T13:01:08;1.90;;;0.80;;
50126;SDS011;36024;47.974;16.398;2023-08-07T13:03:35;0.60;;;0.60;;
50126;SDS011;36024;47.974;16.398;2023-08-07T13:06:02;0.80;;;0.70;;
50126;SDS011;36024;47.974;16.398;2023-08-07T13:08:32;0.77;;;0.60;;
50126;SDS011;36024;47.974;16.398;2023-08-07T13:11:00;1.23;;;0.70;;
50126;SDS011;36024;47.974;16.398;2023-08-07T13:13:27;0.83;;;0.53;;
50126;SDS011;36024;47.974;16.398;2023-08-07T13:15:54;1.20;;;0.60;;
50126;SDS011;36024;47.974;16.398;2023-08-07T13:18:21;1.43;;;0.90;;
50126;SDS011;36024;47.974;16.398;2023-08-07T13:20:48;1.00;;;0.60;;
50126;SDS011;36024;47.974;16.398;2023-08-07T13:23:15;1.40;;;0.80;;
50126;SDS011;36024;47.974;16.398;2023-08-07T13:25:41;0.93;;;0.60;;
50126;SDS011;36024;47.974;16.398;2023-08-07T13:28:08;1.07;;;0.80;;
50126;SDS011;36024;47.974;16.398;2023-08-07T13:30:35;0.70;;;0.70;;
50126;SDS011;36024;47.974;16.398;2023-08-07T13:33:03;1.20;;;0.90;;
50126;SDS011;36024;47.974;16.398;2023-08-07T13:35:30;0.70;;;0.60;;
50126;SDS011;36024;47.974;16.398;2023-08-07T13:37:59;0.90;;;0.80;;
50126;SDS011;36024;47.974;16.398;2023-08-07T13:40:25;0.70;;;0.70;;
50126;SDS011;36024;47.974;16.398;2023-08-07T13:42:52;2.67;;;0.80;;
50126;SDS011;36024;47.974;16.398;2023-08-07T13:45:19;1.67;;;0.93;;
50126;SDS011;36024;47.974;16.398;2023-08-07T13:47:46;0.77;;;0.60;;
50126;SDS011;36024;47.974;16.398;2023-08-07T13:50:13;1.57;;;0.87;;
50126;SDS011;36024;47.974;16.398;2023-08-07T13:52:40;0.93;;;0.83;;
50126;SDS011;36024;47.974;16.398;2023-08-07T13:55:07;0.93;;;0.73;;
50126;SDS011;36024;47.974;16.398;2023-08-07T13:57:35;0.93;;;0.80;;
50126;SDS011;36024;47.974;16.398;2023-08-07T14:00:02;1.30;;;1.00;;
50126;SDS011;36024;47.974;16.398;2023-08-07T14:02:30;0.97;;;0.87;;
50126;SDS011;36024;47.974;16.398;2023-08-07T14:04:58;0.90;;;0.90;;
50126;SDS011;36024;47.974;16.398;2023-08-07T14:07:24;0.93;;;0.90;;
50126;SDS011;36024;47.974;16.398;2023-08-07T14:09:51;0.70;;;0.70;;
50126;SDS011;36024;47.974;16.398;2023-08-07T14:12:18;1.27;;;1.13;;
50126;SDS011;36024;47.974;16.398;2023-08-07T14:14:44;1.20;;;1.00;;
50126;SDS011;36024;47.974;16.398;2023-08-07T14:17:11;0.80;;;0.80;;
50126;SDS011;36024;47.974;16.398;2023-08-07T14:19:38;1.27;;;1.00;;
50126;SDS011;36024;47.974;16.398;2023-08-07T14:22:04;0.90;;;0.90;;
50126;SDS011;36024;47.974;16.398;2023-08-07T14:24:31;0.90;;;0.87;;
50126;SDS011;36024;47.974;16.398;2023-08-07T14:26:58;1.53;;;1.00;;
50126;SDS011;36024;47.974;16.398;2023-08-07T14:29:24;2.40;;;0.90;;
50126;SDS011;36024;47.974;16.398;2023-08-07T14:31:51;0.80;;;0.80;;
50126;SDS011;36024;47.974;16.398;2023-08-07T14:34:17;1.43;;;0.90;;
50126;SDS011;36024;47.974;16.398;2023-08-07T14:36:44;1.30;;;0.80;;
50126;SDS011;36024;47.974;16.398;2023-08-07T14:39:11;1.33;;;1.00;;
50126;SDS011;36024;47.974;16.398;2023-08-07T14:41:37;1.10;;;0.87;;
50126;SDS011;36024;47.974;16.398;2023-08-07T14:44:04;0.90;;;0.90;;
50126;SDS011;36024;47.974;16.398;2023-08-07T14:46:31;3.47;;;1.30;;
50126;SDS011;36024;47.974;16.398;2023-08-07T14:48:57;3.37;;;1.00;;
50126;SDS011;36024;47.974;16.398;2023-08-07T14:51:24;1.03;;;0.97;;